createdAt,value
2017-10-05T00:01:58.349Z,12.30
2017-10-05T00:04:25.950Z,12.30
2017-10-05T00:06:53.510Z,12.40
2017-10-05T00:09:21.838Z,12.40
2017-10-05T00:11:49.360Z,12.30
2017-10-05T00:14:16.898Z,12.30
2017-10-05T00:16:45.230Z,12.20
2017-10-05T00:19:12.973Z,12.20
2017-10-05T00:21:40.535Z,12.20
2017-10-05T00:24:08.092Z,12.20
2017-10-05T00:26:35.680Z,12.20
2017-10-05T00:29:03.246Z,12.20
2017-10-05T00:31:30.812Z,12.20
2017-10-05T00:33:58.381Z,12.10
2017-10-05T00:36:25.952Z,12.10
2017-10-05T00:38:54.261Z,12.10
2017-10-05T00:41:21.809Z,12.10
2017-10-05T00:43:49.371Z,12.10
2017-10-05T00:46:16.935Z,12.00
2017-10-05T00:48:44.508Z,12.00
2017-10-05T00:51:12.073Z,12.00
2017-10-05T00:53:39.642Z,12.00
2017-10-05T00:56:07.200Z,12.10
2017-10-05T00:58:34.780Z,12.10
2017-10-05T01:01:02.365Z,12.00
2017-10-05T01:03:30.711Z,11.90
2017-10-05T01:05:58.257Z,11.90
2017-10-05T01:08:25.785Z,11.90
2017-10-05T01:10:54.118Z,12.00
2017-10-05T01:13:21.705Z,12.00
2017-10-05T01:15:50.116Z,12.00
2017-10-05T01:18:17.660Z,11.90
2017-10-05T01:20:46.057Z,12.00
2017-10-05T01:23:13.609Z,11.90
2017-10-05T01:25:41.949Z,11.90
2017-10-05T01:28:09.492Z,11.90
2017-10-05T01:30:37.053Z,12.00
2017-10-05T01:33:04.598Z,12.00
2017-10-05T01:35:32.174Z,12.00
2017-10-05T01:37:59.746Z,12.00
2017-10-05T01:40:27.319Z,12.00
2017-10-05T01:42:54.917Z,12.10
2017-10-05T01:45:22.474Z,12.10
2017-10-05T01:47:50.039Z,12.10
2017-10-05T01:50:17.615Z,12.20
2017-10-05T01:52:45.166Z,12.20
2017-10-05T01:55:12.717Z,12.10
2017-10-05T01:57:40.278Z,12.10
2017-10-05T02:00:07.881Z,12.10
2017-10-05T02:02:35.450Z,12.10
2017-10-05T02:05:03.001Z,12.10
2017-10-05T02:07:30.542Z,12.10
2017-10-05T02:09:58.111Z,12.10
2017-10-05T02:12:25.641Z,12.20
2017-10-05T02:14:53.205Z,12.20
2017-10-05T02:17:20.745Z,12.20
2017-10-05T02:19:48.310Z,12.20
2017-10-05T02:22:15.870Z,12.20
2017-10-05T02:24:43.438Z,12.30
2017-10-05T02:27:11.002Z,12.30
2017-10-05T02:29:38.607Z,12.30
2017-10-05T02:32:06.161Z,12.40
2017-10-05T02:34:33.706Z,12.40
2017-10-05T02:37:01.304Z,12.40
2017-10-05T02:39:29.646Z,12.30
2017-10-05T02:41:57.221Z,12.30
2017-10-05T02:44:24.769Z,12.30
2017-10-05T02:46:52.349Z,12.30
2017-10-05T02:49:19.913Z,12.30
2017-10-05T02:51:47.470Z,12.30
2017-10-05T02:54:15.027Z,12.30
2017-10-05T02:56:42.569Z,12.30
2017-10-05T02:59:10.133Z,12.30
2017-10-05T03:01:37.678Z,12.30
2017-10-05T03:04:05.251Z,12.30
2017-10-05T03:06:32.790Z,12.30
2017-10-05T03:09:00.373Z,12.40
2017-10-05T03:11:27.934Z,12.30
2017-10-05T03:13:55.497Z,12.20
2017-10-05T03:16:23.051Z,12.30
2017-10-05T03:18:50.615Z,12.20
2017-10-05T03:21:18.164Z,12.20
2017-10-05T03:23:45.730Z,12.30
2017-10-05T03:26:13.293Z,12.30
2017-10-05T03:28:40.843Z,12.30
2017-10-05T03:31:08.400Z,12.30
2017-10-05T03:33:35.957Z,12.30
2017-10-05T03:36:03.527Z,12.20
2017-10-05T03:38:31.111Z,12.20
2017-10-05T03:40:59.448Z,12.10
2017-10-05T03:43:27.018Z,12.10
2017-10-05T03:45:54.587Z,12.10
2017-10-05T03:48:22.188Z,12.20
2017-10-05T03:50:49.778Z,12.10
2017-10-05T03:53:17.338Z,12.10
2017-10-05T03:55:44.897Z,12.10
2017-10-05T03:58:12.461Z,12.10
2017-10-05T04:00:40.015Z,12.10
2017-10-05T04:03:07.593Z,12.10
2017-10-05T04:05:35.145Z,12.10
2017-10-05T04:08:02.720Z,12.00
2017-10-05T04:10:30.312Z,12.10
2017-10-05T04:12:57.871Z,12.10
2017-10-05T04:15:25.437Z,12.10
2017-10-05T04:17:53.004Z,12.00
2017-10-05T04:20:21.349Z,12.00
2017-10-05T04:22:48.888Z,12.00
2017-10-05T04:25:16.457Z,12.00
2017-10-05T04:27:44.016Z,11.90
2017-10-05T04:30:11.598Z,11.90
2017-10-05T04:32:39.183Z,11.90
2017-10-05T04:35:07.517Z,11.90
2017-10-05T04:37:35.109Z,11.90
2017-10-05T04:40:02.665Z,11.90
2017-10-05T04:42:30.222Z,11.90
2017-10-05T04:44:57.782Z,11.90
2017-10-05T04:47:25.332Z,11.90
2017-10-05T04:49:52.897Z,11.90
2017-10-05T04:52:20.479Z,11.90
2017-10-05T04:54:48.797Z,11.80
2017-10-05T04:57:16.360Z,11.80
2017-10-05T04:59:43.934Z,11.80
2017-10-05T05:02:11.513Z,11.80
2017-10-05T05:04:39.074Z,11.80
2017-10-05T05:07:06.634Z,11.80
2017-10-05T05:09:34.177Z,11.90
2017-10-05T05:12:01.763Z,11.90
2017-10-05T05:14:29.329Z,11.80
2017-10-05T05:16:56.901Z,11.90
2017-10-05T05:19:25.215Z,11.80
2017-10-05T05:21:52.807Z,11.80
2017-10-05T05:24:20.361Z,11.80
2017-10-05T05:26:47.918Z,11.90
2017-10-05T05:29:16.283Z,11.90
2017-10-05T05:31:43.832Z,11.80
2017-10-05T05:34:11.412Z,11.90
2017-10-05T05:36:47.191Z,11.90
2017-10-05T05:39:16.442Z,11.90
2017-10-05T16:06:58.486Z,14.00
2017-10-05T16:09:26.323Z,14.00
2017-10-05T16:11:54.669Z,14.00
2017-10-05T16:14:22.258Z,14.00
2017-10-05T16:16:49.819Z,14.00
2017-10-05T16:19:17.405Z,13.90
2017-10-05T16:21:44.965Z,13.90
2017-10-05T16:24:13.324Z,14.00
2017-10-05T16:26:40.895Z,13.90
2017-10-05T16:29:08.476Z,14.00
2017-10-05T16:31:36.058Z,13.90
2017-10-05T16:34:03.646Z,14.00
2017-10-05T16:36:31.245Z,14.10
2017-10-05T16:38:58.816Z,14.00
2017-10-05T16:41:26.397Z,14.00
2017-10-05T16:43:53.958Z,13.90
2017-10-05T16:46:21.604Z,13.90
2017-10-05T16:48:49.930Z,13.80
2017-10-05T16:51:17.524Z,13.80
2017-10-05T16:53:45.340Z,13.20
2017-10-05T16:56:13.081Z,12.80
2017-10-05T16:58:40.904Z,12.50
2017-10-05T17:01:08.500Z,12.40
2017-10-05T17:03:36.850Z,12.20
2017-10-05T17:06:04.527Z,12.20
2017-10-05T17:08:33.845Z,12.10
2017-10-05T17:11:02.401Z,12.00
2017-10-05T17:13:30.045Z,12.00
2017-10-05T17:15:57.607Z,12.00
2017-10-05T17:18:25.375Z,12.00
2017-10-05T17:20:53.146Z,12.00
2017-10-05T17:23:21.695Z,12.00
2017-10-05T17:25:50.761Z,11.90
2017-10-05T17:28:19.111Z,12.00
2017-10-05T17:30:46.738Z,12.00
2017-10-05T17:33:14.314Z,11.90
2017-10-05T17:35:41.885Z,11.90
2017-10-05T17:38:09.439Z,12.00
2017-10-05T17:40:37.072Z,12.10
2017-10-05T17:43:04.663Z,12.10
2017-10-05T17:45:32.234Z,12.20
2017-10-05T17:47:59.831Z,12.20
2017-10-05T17:50:28.182Z,12.30
2017-10-05T17:52:55.766Z,12.30
2017-10-05T17:55:24.108Z,12.30
2017-10-05T17:57:51.718Z,12.30
2017-10-05T18:00:19.434Z,12.20
2017-10-05T18:02:47.092Z,12.20
2017-10-05T18:05:14.647Z,12.10
2017-10-05T18:07:42.217Z,12.10
2017-10-05T18:10:09.797Z,12.20
2017-10-05T18:12:37.402Z,12.20
2017-10-05T18:15:04.980Z,12.20
2017-10-05T18:17:32.540Z,12.20
2017-10-05T18:20:00.124Z,12.00
2017-10-05T18:22:27.678Z,12.00
2017-10-05T18:24:55.455Z,11.90
2017-10-05T18:27:23.012Z,11.80
2017-10-05T18:29:50.574Z,11.70
2017-10-05T18:32:18.157Z,11.70
2017-10-05T18:34:46.485Z,11.60
2017-10-05T18:37:14.073Z,11.60
2017-10-05T18:39:41.620Z,11.60
2017-10-05T18:42:09.209Z,11.50
2017-10-05T18:44:36.749Z,11.40
2017-10-05T18:47:04.357Z,11.40
2017-10-05T18:49:31.913Z,11.30
2017-10-05T18:52:00.281Z,11.30
2017-10-05T18:54:28.634Z,11.30
2017-10-05T18:56:56.213Z,11.30
2017-10-05T18:59:23.769Z,11.30
2017-10-05T19:01:51.344Z,11.30
2017-10-05T19:04:19.671Z,11.30
2017-10-05T19:06:47.270Z,11.30
2017-10-05T19:09:15.697Z,11.30
2017-10-05T19:11:43.273Z,11.30
2017-10-05T19:14:10.839Z,11.20
2017-10-05T19:16:38.421Z,11.20
2017-10-05T19:19:05.997Z,11.20
2017-10-05T19:21:33.570Z,11.20
2017-10-05T19:24:01.962Z,11.10
2017-10-05T19:26:29.541Z,11.10
2017-10-05T19:28:57.119Z,11.10
2017-10-05T19:31:24.700Z,11.00
2017-10-05T19:33:52.290Z,11.00
2017-10-05T19:36:20.643Z,11.00
2017-10-05T19:38:48.217Z,10.90
2017-10-05T19:41:16.556Z,10.90
2017-10-05T19:43:44.117Z,10.90
2017-10-05T19:46:11.676Z,10.90
2017-10-05T19:48:39.251Z,10.80
2017-10-05T19:51:06.837Z,10.80
2017-10-05T19:53:35.155Z,10.80
2017-10-05T19:56:02.722Z,10.70
2017-10-05T19:58:30.295Z,10.70
2017-10-05T20:01:01.809Z,10.80
2017-10-05T20:03:30.142Z,10.70
2017-10-05T20:05:57.771Z,10.70
2017-10-05T20:08:25.343Z,10.70
2017-10-05T20:10:54.509Z,10.70
2017-10-05T20:13:28.744Z,10.70
2017-10-05T20:15:59.834Z,10.60
2017-10-05T20:18:43.902Z,10.60
2017-10-05T20:21:27.120Z,10.50
2017-10-05T20:23:59.387Z,10.50
2017-10-05T20:26:46.384Z,10.50
2017-10-05T20:29:34.680Z,10.40
2017-10-05T20:32:18.072Z,10.40
2017-10-05T20:34:45.648Z,10.50
2017-10-05T20:37:13.974Z,10.40
2017-10-05T20:39:41.570Z,10.40
2017-10-05T20:42:09.121Z,10.40
2017-10-05T20:44:36.708Z,10.30
2017-10-05T20:47:05.015Z,10.20
2017-10-05T20:49:32.575Z,10.20
2017-10-05T20:52:00.138Z,10.20
2017-10-05T20:54:27.694Z,10.10
2017-10-05T20:56:55.264Z,10.10
2017-10-05T20:59:22.847Z,10.10
2017-10-05T21:01:50.413Z,10.10
2017-10-05T21:04:18.009Z,10.10
2017-10-05T21:06:46.352Z,10.00
2017-10-05T21:09:13.907Z,10.00
2017-10-05T21:11:41.508Z,10.00
2017-10-05T21:14:09.845Z,10.00
2017-10-05T21:16:37.436Z,9.90
2017-10-05T21:19:05.759Z,9.90
2017-10-05T21:21:33.310Z,9.90
2017-10-05T21:24:00.878Z,9.90
2017-10-05T21:26:28.433Z,9.80
2017-10-05T21:28:55.988Z,9.80
2017-10-05T21:31:23.603Z,9.80
2017-10-05T21:33:51.182Z,9.80
2017-10-05T21:36:19.495Z,9.90
2017-10-05T21:38:47.058Z,9.80
2017-10-05T21:41:14.637Z,9.90
2017-10-05T21:43:42.217Z,9.90
2017-10-05T21:46:09.766Z,10.00
2017-10-05T21:48:37.338Z,10.00
2017-10-05T21:51:04.918Z,10.00
2017-10-05T21:53:33.236Z,10.00
2017-10-05T21:56:00.795Z,10.00
2017-10-05T21:58:28.392Z,10.00
2017-10-05T22:00:56.032Z,9.90
2017-10-05T22:03:23.660Z,10.00
2017-10-05T22:05:51.252Z,9.90
2017-10-05T22:08:18.841Z,9.90
2017-10-05T22:10:46.456Z,9.90
2017-10-05T22:13:14.046Z,9.90
2017-10-05T22:15:41.671Z,9.90
2017-10-05T22:18:09.262Z,9.90
2017-10-05T22:20:36.855Z,9.90
2017-10-05T22:23:05.229Z,9.90
2017-10-05T22:25:32.812Z,9.90
2017-10-05T22:28:01.194Z,9.90
2017-10-05T22:30:28.811Z,9.90
2017-10-05T22:32:56.428Z,9.90
2017-10-05T22:35:24.020Z,9.90
2017-10-05T22:37:51.630Z,9.80
2017-10-05T22:40:19.965Z,9.80
2017-10-05T22:42:47.573Z,9.80
2017-10-05T22:45:15.918Z,9.90
2017-10-05T22:47:43.539Z,9.90
2017-10-05T22:50:11.151Z,9.80
2017-10-05T22:52:38.735Z,9.70
2017-10-05T22:55:06.353Z,9.60
2017-10-05T22:57:33.946Z,9.60
2017-10-05T23:00:02.334Z,9.50
2017-10-05T23:02:30.703Z,9.50
2017-10-05T23:04:59.058Z,9.40
2017-10-05T23:07:26.635Z,9.40
2017-10-05T23:09:54.252Z,9.40
2017-10-05T23:12:21.878Z,9.40
2017-10-05T23:14:50.242Z,9.30
2017-10-05T23:17:18.602Z,9.30
2017-10-05T23:19:46.187Z,9.30
2017-10-05T23:22:14.555Z,9.20
2017-10-05T23:24:42.913Z,9.10
2017-10-05T23:27:10.538Z,9.10
2017-10-05T23:29:38.139Z,9.10
2017-10-05T23:32:05.746Z,9.10
2017-10-05T23:34:33.335Z,9.00
2017-10-05T23:37:00.922Z,9.00
2017-10-05T23:39:28.554Z,9.00
2017-10-05T23:41:56.139Z,9.00
2017-10-05T23:44:23.754Z,8.90
2017-10-05T23:46:51.361Z,8.90
2017-10-05T23:49:18.958Z,8.90
2017-10-05T23:51:47.312Z,8.90
2017-10-05T23:54:14.923Z,8.80
2017-10-05T23:56:42.520Z,8.90
2017-10-05T23:59:10.115Z,8.90
